Time;durP1;ratioP1;P1;durP2;ratioP2;P2;SDS_P1;SDS_P2;PMS_P1;PMS_P2;Temp;Humidity;BMP_temperature;BMP_pressure;BME280_temperature;BME280_humidity;BME280_pressure;Samples;Min_cycle;Max_cycle;Signal;HPM_P1;HPM_P2
2022/08/15 00:01:19;;;;;;;8.93;6.13;;;24.80;59.30;;;;;;5064873;28;21075;-79
2022/08/15 00:03:53;;;;;;;9.20;6.60;;;24.80;59.40;;;;;;5062497;28;20583;-78
2022/08/15 00:06:31;;;;;;;8.50;6.00;;;24.70;59.50;;;;;;5076091;28;20479;-78
2022/08/15 00:09:12;;;;;;;10.23;6.23;;;24.70;59.60;;;;;;5080940;28;21273;-77
2022/08/15 00:11:44;;;;;;;8.80;6.40;;;24.70;59.70;;;;;;5077137;28;20456;-77
2022/08/15 00:14:17;;;;;;;10.20;6.70;;;24.70;59.80;;;;;;5076946;28;20509;-78
2022/08/15 00:17:00;;;;;;;12.37;6.70;;;24.70;59.90;;;;;;5079852;28;20481;-78
2022/08/15 00:19:31;;;;;;;8.73;6.40;;;24.70;59.90;;;;;;5078742;28;21049;-77
2022/08/15 00:22:04;;;;;;;10.70;6.87;;;24.70;59.90;;;;;;5072510;28;20482;-77
2022/08/15 00:24:47;;;;;;;8.33;6.40;;;24.70;59.90;;;;;;5075942;28;20479;-76
2022/08/15 00:27:24;;;;;;;9.17;6.20;;;24.70;59.90;;;;;;5053209;28;21128;-76
2022/08/15 00:29:53;;;;;;;8.37;5.70;;;24.70;59.70;;;;;;5073372;28;20451;-76
2022/08/15 00:32:24;;;;;;;7.80;5.80;;;24.70;59.50;;;;;;5071323;28;20497;-77
2022/08/15 00:37:56;;;;;;;8.27;6.30;;;24.80;59.30;;;;;;5064271;28;20510;-76
2022/08/15 00:43:34;;;;;;;11.83;5.70;;;24.90;58.90;;;;;;5041960;28;20507;-76
2022/08/15 00:46:05;;;;;;;8.47;5.47;;;24.90;58.70;;;;;;5076892;28;21158;-77
2022/08/15 00:48:50;;;;;;;8.70;6.23;;;24.90;58.70;;;;;;5077030;28;20532;-77
2022/08/15 00:51:22;;;;;;;8.90;5.60;;;24.90;58.60;;;;;;5063361;28;20497;-76
2022/08/15 00:54:02;;;;;;;11.03;5.80;;;25.00;58.50;;;;;;5062899;28;20479;-78
2022/08/15 00:56:35;;;;;;;12.07;6.17;;;25.00;58.40;;;;;;5074332;28;20504;-77
2022/08/15 00:59:08;;;;;;;9.53;6.60;;;25.00;58.30;;;;;;5061045;28;20525;-78
2022/08/15 01:01:44;;;;;;;8.80;5.73;;;25.00;58.30;;;;;;5075675;28;20593;-78
2022/08/15 01:04:28;;;;;;;9.70;6.10;;;25.00;58.30;;;;;;5076608;28;20884;-78
2022/08/15 01:07:03;;;;;;;8.73;5.97;;;25.00;58.30;;;;;;5070956;28;20461;-78
2022/08/15 01:09:32;;;;;;;7.80;5.67;;;25.00;58.30;;;;;;5075082;28;20466;-77
2022/08/15 01:12:08;;;;;;;7.83;5.50;;;24.90;58.30;;;;;;5075805;28;21100;-78
2022/08/15 01:14:39;;;;;;;7.80;6.07;;;24.90;58.40;;;;;;5072265;28;20907;-77
2022/08/15 01:17:27;;;;;;;8.53;5.80;;;24.90;58.40;;;;;;5067679;28;20540;-77
2022/08/15 01:20:01;;;;;;;8.57;6.80;;;24.90;58.40;;;;;;5077358;28;20551;-77
2022/08/15 01:22:43;;;;;;;9.17;6.00;;;24.90;58.40;;;;;;5062793;28;20478;-77
2022/08/15 01:25:20;;;;;;;9.47;6.20;;;24.90;58.50;;;;;;5061462;28;20487;-77
2022/08/15 01:28:12;;;;;;;9.27;6.43;;;24.90;58.60;;;;;;5091017;28;20525;-76
2022/08/15 01:30:48;;;;;;;9.60;6.63;;;24.90;58.50;;;;;;5064127;28;20469;-77
2022/08/15 01:33:34;;;;;;;8.00;6.03;;;24.90;58.70;;;;;;5089321;28;20476;-77
2022/08/15 01:36:04;;;;;;;8.90;6.00;;;24.90;58.70;;;;;;5062335;28;20451;-77
2022/08/15 01:39:00;;;;;;;8.90;6.43;;;24.90;58.70;;;;;;5073348;28;20461;-78
2022/08/15 01:41:44;;;;;;;9.67;6.53;;;24.80;58.80;;;;;;5075230;28;21263;-78
2022/08/15 01:44:30;;;;;;;8.37;6.30;;;24.80;58.90;;;;;;5091226;28;20549;-78
2022/08/15 01:47:22;;;;;;;10.17;6.73;;;24.80;58.90;;;;;;5088858;28;20511;-78
2022/08/15 01:49:58;;;;;;;10.30;6.53;;;24.90;59.00;;;;;;5059742;28;20456;-77
2022/08/15 01:52:37;;;;;;;9.30;6.67;;;24.80;59.00;;;;;;5073403;28;20493;-77
2022/08/15 01:55:31;;;;;;;8.63;6.70;;;24.80;59.10;;;;;;5072234;28;20455;-78
2022/08/15 01:58:06;;;;;;;7.50;5.60;;;24.80;59.10;;;;;;5063001;28;20468;-78
2022/08/15 02:00:37;;;;;;;9.30;6.20;;;24.80;59.10;;;;;;5091463;28;20929;-77
2022/08/15 02:03:11;;;;;;;7.07;5.60;;;24.80;59.10;;;;;;5059683;28;20596;-77
2022/08/15 02:05:49;;;;;;;10.03;6.37;;;24.80;59.20;;;;;;5056215;28;20915;-77
2022/08/15 02:08:25;;;;;;;11.87;6.30;;;24.70;59.10;;;;;;5069855;28;20468;-78
2022/08/15 02:11:06;;;;;;;8.33;5.57;;;24.70;59.10;;;;;;5063373;28;20459;-76
2022/08/15 02:13:54;;;;;;;8.50;5.87;;;24.70;59.00;;;;;;5065527;28;20502;-78
2022/08/15 02:16:26;;;;;;;7.43;4.80;;;24.70;58.90;;;;;;5054391;28;20558;-78
2022/08/15 02:18:54;;;;;;;8.17;5.23;;;24.70;58.80;;;;;;5091729;28;20517;-77
2022/08/15 02:21:27;;;;;;;8.67;5.00;;;24.70;58.70;;;;;;5093826;28;20832;-77
2022/08/15 02:24:07;;;;;;;8.90;4.77;;;24.70;58.60;;;;;;5072753;28;21272;-77
2022/08/15 02:26:50;;;;;;;12.67;5.60;;;24.70;58.50;;;;;;5088955;28;20474;-76
2022/08/15 02:29:22;;;;;;;7.67;5.00;;;24.80;58.40;;;;;;5061426;28;20533;-77
2022/08/15 02:31:53;;;;;;;8.90;5.30;;;24.80;58.20;;;;;;5056310;28;20466;-77
2022/08/15 02:34:24;;;;;;;10.33;5.40;;;24.80;58.20;;;;;;5071999;28;20478;-77
2022/08/15 02:37:18;;;;;;;12.53;5.17;;;24.70;58.30;;;;;;5063483;28;20452;-78
2022/08/15 02:39:52;;;;;;;8.27;5.50;;;24.70;58.40;;;;;;5061271;28;20465;-78
2022/08/15 02:42:41;;;;;;;7.70;5.20;;;24.70;58.50;;;;;;5075251;28;20973;-78
2022/08/15 02:45:17;;;;;;;8.60;5.90;;;24.70;58.50;;;;;;5059359;28;20452;-78
2022/08/15 02:47:45;;;;;;;7.07;4.83;;;24.70;58.50;;;;;;5063758;28;20476;-78
2022/08/15 02:50:17;;;;;;;6.70;4.10;;;24.70;58.50;;;;;;5060940;28;20456;-78
2022/08/15 02:52:49;;;;;;;9.20;4.60;;;24.70;58.50;;;;;;5057796;28;20463;-77
2022/08/15 02:55:22;;;;;;;7.80;4.57;;;24.70;58.40;;;;;;5060748;28;20454;-78
2022/08/15 02:57:52;;;;;;;13.10;4.57;;;24.70;58.40;;;;;;5090652;28;20463;-77
2022/08/15 03:00:30;;;;;;;8.20;4.23;;;24.70;58.40;;;;;;5089102;28;20574;-77
2022/08/15 03:03:08;;;;;;;8.50;5.17;;;24.70;58.30;;;;;;5065738;28;20486;-77
2022/08/15 03:05:49;;;;;;;7.27;4.60;;;24.80;58.40;;;;;;5083613;28;20522;-77
2022/08/15 03:08:22;;;;;;;7.00;4.37;;;24.80;58.40;;;;;;5060613;28;20488;-78
2022/08/15 03:10:51;;;;;;;9.40;5.70;;;24.80;58.40;;;;;;5060471;28;20461;-78
2022/08/15 03:13:22;;;;;;;8.13;4.63;;;24.80;58.30;;;;;;5060903;28;20481;-78
2022/08/15 03:15:56;;;;;;;7.43;5.20;;;24.70;58.40;;;;;;5080700;28;20491;-78
2022/08/15 03:18:32;;;;;;;9.40;5.33;;;24.70;58.40;;;;;;5077786;28;20549;-78
2022/08/15 03:21:09;;;;;;;8.87;5.00;;;24.70;58.50;;;;;;5064001;28;20470;-78
2022/08/15 03:23:38;;;;;;;15.20;5.07;;;24.70;58.50;;;;;;5066706;28;20501;-79
2022/08/15 03:26:11;;;;;;;11.43;4.73;;;24.60;58.50;;;;;;5061776;28;20627;-78
2022/08/15 03:28:59;;;;;;;7.53;4.60;;;24.60;58.60;;;;;;5057315;28;20462;-78
2022/08/15 03:31:37;;;;;;;7.73;4.23;;;24.60;58.60;;;;;;5062404;28;20580;-77
2022/08/15 03:34:17;;;;;;;8.33;4.90;;;24.60;58.70;;;;;;5065473;28;20473;-78
2022/08/15 03:37:05;;;;;;;10.53;4.80;;;24.60;58.70;;;;;;5064144;28;20460;-78
2022/08/15 03:39:33;;;;;;;6.83;4.43;;;24.60;58.80;;;;;;5090812;28;20470;-77
2022/08/15 03:42:09;;;;;;;8.20;5.70;;;24.60;58.80;;;;;;5061866;28;21064;-78
2022/08/15 03:44:47;;;;;;;8.27;4.73;;;24.70;58.90;;;;;;5096093;28;20474;-77
2022/08/15 03:47:21;;;;;;;8.97;4.30;;;24.60;58.90;;;;;;5074694;28;20486;-77
2022/08/15 03:49:49;;;;;;;6.40;4.60;;;24.70;58.90;;;;;;5059387;28;20458;-78
2022/08/15 03:52:50;;;;;;;6.93;4.37;;;24.70;59.00;;;;;;5065868;28;21200;-78
2022/08/15 03:55:19;;;;;;;6.70;4.30;;;24.70;59.10;;;;;;5091424;28;20471;-78
2022/08/15 03:57:51;;;;;;;8.40;4.10;;;24.70;59.10;;;;;;5090198;28;20474;-78
2022/08/15 04:00:38;;;;;;;7.73;4.37;;;24.70;59.20;;;;;;5059582;28;20483;-78
2022/08/15 04:03:11;;;;;;;13.70;4.77;;;24.70;59.30;;;;;;5065656;28;20483;-78
2022/08/15 04:05:42;;;;;;;7.10;4.70;;;24.70;59.30;;;;;;5095774;28;20456;-78
2022/08/15 04:08:14;;;;;;;10.87;4.47;;;24.70;59.30;;;;;;5066173;28;20482;-78
2022/08/15 04:11:03;;;;;;;14.83;4.57;;;24.70;59.30;;;;;;5076554;28;20459;-78
2022/08/15 04:13:35;;;;;;;9.13;3.73;;;24.80;59.40;;;;;;5064800;28;20538;-78
2022/08/15 04:16:10;;;;;;;14.53;4.67;;;24.70;59.30;;;;;;5063946;28;20512;-76
2022/08/15 04:19:00;;;;;;;8.23;4.70;;;24.70;59.40;;;;;;5062390;28;20460;-78
2022/08/15 04:21:30;;;;;;;9.73;4.20;;;24.70;59.40;;;;;;5058802;28;20480;-78
2022/08/15 04:23:58;;;;;;;8.07;4.07;;;24.70;59.40;;;;;;5093577;28;20552;-79
2022/08/15 04:26:26;;;;;;;8.60;4.97;;;24.70;59.50;;;;;;5077054;28;20482;-78
2022/08/15 04:28:57;;;;;;;9.83;4.90;;;24.70;59.60;;;;;;5057302;28;20459;-78
2022/08/15 04:31:29;;;;;;;6.27;4.03;;;24.70;59.60;;;;;;5065385;28;20490;-77
2022/08/15 04:34:03;;;;;;;12.80;4.30;;;24.70;59.70;;;;;;5067986;28;20478;-78
2022/08/15 04:36:51;;;;;;;7.30;4.63;;;24.70;59.70;;;;;;5064655;28;20461;-78
2022/08/15 04:39:20;;;;;;;9.07;4.30;;;24.70;59.80;;;;;;5090103;28;20459;-78
2022/08/15 04:42:01;;;;;;;7.70;4.73;;;24.70;59.90;;;;;;5060838;28;20490;-78
2022/08/15 04:44:31;;;;;;;6.83;4.00;;;24.70;60.00;;;;;;5063677;28;20478;-78
2022/08/15 04:47:00;;;;;;;8.33;4.53;;;24.70;60.00;;;;;;5062439;28;20514;-78
2022/08/15 04:49:30;;;;;;;9.10;5.30;;;24.70;60.20;;;;;;5062668;28;20468;-78
2022/08/15 04:52:08;;;;;;;9.10;4.60;;;24.70;60.30;;;;;;5066280;28;20461;-76
2022/08/15 04:54:36;;;;;;;7.87;4.60;;;24.70;60.40;;;;;;5062600;28;20483;-78
2022/08/15 04:57:15;;;;;;;10.60;4.53;;;24.70;60.40;;;;;;5059737;28;20557;-77
2022/08/15 04:59:46;;;;;;;10.30;5.03;;;24.70;60.50;;;;;;5063194;28;20824;-76
2022/08/15 05:03:00;;;;;;;9.77;5.33;;;24.70;60.50;;;;;;5085529;28;20478;-77
2022/08/15 05:05:34;;;;;;;8.30;4.60;;;24.70;60.60;;;;;;5081047;28;20505;-78
2022/08/15 05:08:05;;;;;;;7.93;4.70;;;24.70;60.70;;;;;;5063067;28;20562;-77
2022/08/15 05:10:43;;;;;;;11.43;4.73;;;24.70;60.70;;;;;;5058989;28;20458;-76
2022/08/15 05:13:35;;;;;;;10.80;4.53;;;24.70;60.80;;;;;;5079284;28;20537;-78
2022/08/15 05:16:07;;;;;;;8.67;5.47;;;24.70;60.90;;;;;;5058217;28;20476;-78
2022/08/15 05:18:42;;;;;;;14.47;4.70;;;24.70;61.00;;;;;;5064443;28;20463;-79
2022/08/15 05:21:16;;;;;;;8.93;5.00;;;24.70;61.00;;;;;;5074891;28;20493;-78
2022/08/15 05:23:47;;;;;;;9.47;4.63;;;24.70;61.20;;;;;;5093092;28;20510;-77
2022/08/15 05:26:29;;;;;;;10.07;4.13;;;24.70;61.30;;;;;;5062457;28;20461;-77
2022/08/15 05:29:17;;;;;;;10.90;5.20;;;24.70;61.40;;;;;;5063828;28;20505;-77
2022/08/15 05:31:45;;;;;;;10.90;4.40;;;24.70;61.60;;;;;;5075616;28;20565;-79
2022/08/15 05:34:19;;;;;;;9.20;4.33;;;24.60;61.70;;;;;;5063284;28;21013;-78
2022/08/15 05:37:09;;;;;;;8.47;5.23;;;24.70;61.80;;;;;;5057871;28;20471;-79
2022/08/15 05:39:39;;;;;;;9.73;4.50;;;24.70;62.00;;;;;;5090027;28;20467;-77
2022/08/15 05:42:18;;;;;;;8.33;4.73;;;24.70;62.10;;;;;;5090333;28;20468;-79
2022/08/15 05:45:08;;;;;;;7.37;4.33;;;24.70;62.20;;;;;;5060876;28;20476;-79
2022/08/15 05:47:43;;;;;;;11.13;5.10;;;24.70;62.40;;;;;;5062309;28;20478;-77
2022/08/15 05:50:27;;;;;;;8.73;4.40;;;24.70;62.40;;;;;;5063705;28;20471;-77
2022/08/15 05:53:07;;;;;;;8.00;4.20;;;24.70;62.50;;;;;;5061561;28;20520;-78
2022/08/15 05:55:41;;;;;;;9.60;4.87;;;24.70;62.60;;;;;;5066459;28;20539;-76
2022/08/15 05:58:41;;;;;;;7.87;4.80;;;24.70;62.70;;;;;;5059132;28;20839;-78
2022/08/15 06:01:19;;;;;;;7.77;4.20;;;24.70;62.90;;;;;;5091859;28;20551;-78
2022/08/15 06:03:54;;;;;;;7.53;4.53;;;24.70;63.00;;;;;;5058866;28;20487;-78
2022/08/15 06:06:27;;;;;;;9.03;4.13;;;24.70;63.10;;;;;;5063893;28;20542;-76
2022/08/15 06:09:04;;;;;;;11.10;4.80;;;24.70;63.30;;;;;;5059212;28;20478;-78
2022/08/15 06:11:39;;;;;;;8.50;4.47;;;24.70;63.50;;;;;;5061046;28;20463;-77
2022/08/15 06:14:29;;;;;;;9.10;4.90;;;24.70;63.50;;;;;;5058852;28;20480;-78
2022/08/15 06:17:10;;;;;;;6.67;4.50;;;24.70;63.70;;;;;;5060745;28;21309;-78
2022/08/15 06:19:41;;;;;;;9.23;4.60;;;24.60;63.80;;;;;;5063845;28;20455;-78
2022/08/15 06:22:40;;;;;;;8.03;4.10;;;24.60;64.00;;;;;;5058344;28;20472;-77
2022/08/15 06:25:20;;;;;;;11.43;4.33;;;24.60;64.10;;;;;;5063775;28;20477;-77
2022/08/15 06:28:04;;;;;;;7.70;4.50;;;24.60;64.20;;;;;;5078547;28;20463;-78
2022/08/15 06:31:07;;;;;;;8.30;4.40;;;24.60;64.40;;;;;;5056898;28;20469;-78
2022/08/15 06:33:40;;;;;;;8.63;4.67;;;24.60;64.50;;;;;;5078112;28;20478;-77
2022/08/15 06:36:31;;;;;;;10.67;4.53;;;24.60;64.60;;;;;;5061230;28;20492;-77
2022/08/15 06:39:04;;;;;;;7.20;4.90;;;24.60;64.60;;;;;;5059309;28;20518;-77
2022/08/15 06:41:43;;;;;;;10.27;5.53;;;24.60;64.70;;;;;;5086029;28;20471;-78
2022/08/15 06:44:27;;;;;;;9.70;4.60;;;24.70;64.80;;;;;;5062564;28;21058;-78
2022/08/15 06:47:03;;;;;;;13.33;4.83;;;24.70;64.70;;;;;;5056931;28;20492;-78
2022/08/15 06:49:37;;;;;;;8.27;5.13;;;24.70;64.70;;;;;;5056692;28;21087;-78
2022/08/15 06:52:07;;;;;;;9.10;4.47;;;24.70;64.80;;;;;;5060703;28;20459;-78
2022/08/15 06:54:41;;;;;;;9.83;4.80;;;24.80;64.90;;;;;;5075276;28;20472;-77
2022/08/15 06:57:29;;;;;;;8.77;5.10;;;24.80;64.90;;;;;;5060173;28;20471;-78
2022/08/15 07:00:07;;;;;;;8.93;4.80;;;24.80;65.10;;;;;;5072994;28;20461;-78
2022/08/15 07:03:09;;;;;;;7.13;4.77;;;24.90;65.10;;;;;;5063353;28;20457;-76
2022/08/15 07:05:45;;;;;;;12.30;5.10;;;24.90;65.20;;;;;;5096157;28;20457;-78
2022/08/15 07:08:31;;;;;;;10.87;5.03;;;24.90;65.20;;;;;;5064487;28;20479;-78
2022/08/15 07:11:09;;;;;;;12.73;5.30;;;25.00;65.20;;;;;;5065648;28;20467;-78
2022/08/15 07:14:17;;;;;;;10.30;5.20;;;25.00;65.20;;;;;;5088766;28;20483;-78
2022/08/15 07:16:58;;;;;;;7.10;4.40;;;25.10;65.30;;;;;;5059758;28;20842;-78
2022/08/15 07:19:28;;;;;;;8.33;4.73;;;25.10;65.20;;;;;;5073446;28;20456;-77
2022/08/15 07:22:09;;;;;;;10.47;5.43;;;25.10;65.20;;;;;;5060150;28;20471;-78
2022/08/15 07:24:47;;;;;;;10.43;5.10;;;25.10;65.20;;;;;;5062486;28;20469;-78
2022/08/15 07:27:28;;;;;;;9.10;5.30;;;25.10;65.20;;;;;;5055965;28;20533;-78
2022/08/15 07:30:01;;;;;;;9.87;4.80;;;25.10;65.20;;;;;;5053012;28;20556;-78
2022/08/15 07:32:48;;;;;;;7.30;4.90;;;25.10;65.20;;;;;;5092531;28;20464;-78
2022/08/15 07:35:22;;;;;;;9.77;4.97;;;25.10;65.20;;;;;;5057909;28;20960;-78
2022/08/15 07:37:58;;;;;;;8.70;5.23;;;25.20;65.20;;;;;;5060899;28;20961;-77
2022/08/15 07:40:31;;;;;;;9.37;5.00;;;25.20;65.20;;;;;;5089864;28;20515;-76
2022/08/15 07:43:25;;;;;;;8.40;5.27;;;25.20;65.20;;;;;;5064838;28;20517;-79
2022/08/15 07:46:08;;;;;;;8.90;5.03;;;25.20;65.30;;;;;;5061264;28;21101;-78
2022/08/15 07:48:58;;;;;;;11.60;5.60;;;25.20;65.40;;;;;;5063170;28;20479;-78
2022/08/15 07:51:31;;;;;;;12.50;6.47;;;25.20;65.40;;;;;;5066399;28;20462;-78
2022/08/15 07:54:24;;;;;;;8.70;4.73;;;25.30;65.30;;;;;;5059893;28;21046;-78
2022/08/15 07:57:21;;;;;;;7.70;4.87;;;25.30;65.40;;;;;;5069649;28;20457;-78
2022/08/15 08:00:17;;;;;;;8.60;4.73;;;25.30;65.40;;;;;;5078865;28;20461;-78
2022/08/15 08:03:14;;;;;;;11.97;5.10;;;25.30;65.50;;;;;;5084853;28;20489;-77
2022/08/15 08:05:54;;;;;;;9.70;4.90;;;25.30;65.60;;;;;;5068005;28;20538;-78
2022/08/15 08:08:27;;;;;;;8.67;4.37;;;25.40;65.50;;;;;;5065668;28;20485;-78
2022/08/15 08:11:21;;;;;;;10.70;5.00;;;25.50;65.50;;;;;;5062472;28;21013;-78
2022/08/15 08:13:58;;;;;;;9.83;4.87;;;25.60;65.40;;;;;;5091759;28;20626;-78
2022/08/15 08:16:30;;;;;;;8.00;4.70;;;25.60;65.40;;;;;;5061584;28;20473;-77
2022/08/15 08:19:12;;;;;;;9.23;4.60;;;25.70;65.30;;;;;;5065488;28;21166;-77
2022/08/15 08:21:47;;;;;;;10.03;5.20;;;25.70;65.30;;;;;;5077816;28;20470;-77
2022/08/15 08:24:25;;;;;;;9.03;4.10;;;25.80;65.20;;;;;;5055547;28;20485;-77
2022/08/15 08:27:02;;;;;;;7.07;4.10;;;25.70;65.10;;;;;;5059976;28;20471;-78
2022/08/15 08:29:45;;;;;;;8.60;4.80;;;25.70;65.20;;;;;;5075873;28;20581;-78
2022/08/15 08:32:27;;;;;;;8.80;4.40;;;25.70;65.20;;;;;;5072571;28;20483;-78
2022/08/15 08:35:24;;;;;;;8.73;4.30;;;25.80;65.20;;;;;;5076932;28;21002;-77
2022/08/15 08:38:08;;;;;;;8.00;4.37;;;25.80;65.30;;;;;;5078634;28;20465;-77
2022/08/15 08:43:57;;;;;;;8.23;4.50;;;25.90;65.20;;;;;;5074498;28;21273;-79
2022/08/15 08:46:38;;;;;;;7.73;3.90;;;25.90;65.20;;;;;;5077088;28;20483;-77
2022/08/15 08:49:13;;;;;;;17.33;5.60;;;26.00;65.20;;;;;;5078661;28;20483;-78
2022/08/15 08:51:57;;;;;;;6.00;3.73;;;26.00;65.10;;;;;;5074492;28;20978;-78
2022/08/15 08:54:40;;;;;;;5.83;3.50;;;26.00;65.10;;;;;;5073069;28;20477;-77
2022/08/15 08:57:36;;;;;;;6.80;3.90;;;26.10;65.00;;;;;;5077694;28;20695;-76
2022/08/15 09:00:11;;;;;;;7.60;4.10;;;26.10;64.90;;;;;;5078585;28;20453;-77
2022/08/15 09:02:46;;;;;;;5.90;3.67;;;26.10;64.90;;;;;;5069057;28;20467;-76
2022/08/15 09:05:32;;;;;;;6.03;3.43;;;26.10;64.90;;;;;;5075085;28;20443;-75
2022/08/15 09:08:19;;;;;;;5.37;3.17;;;26.10;64.80;;;;;;5078289;28;20446;-77
2022/08/15 09:11:00;;;;;;;6.07;3.20;;;26.10;64.60;;;;;;5071537;28;20489;-76
2022/08/15 09:13:33;;;;;;;6.90;3.10;;;26.10;64.70;;;;;;5071913;28;21501;-76
2022/08/15 09:16:12;;;;;;;7.07;4.17;;;26.10;64.60;;;;;;5074676;28;20580;-76
2022/08/15 09:18:48;;;;;;;7.43;3.90;;;26.20;64.50;;;;;;5078576;28;20486;-78
2022/08/15 09:21:18;;;;;;;6.30;4.10;;;26.10;64.30;;;;;;5077883;28;20573;-77
2022/08/15 09:23:48;;;;;;;9.73;3.60;;;26.10;64.50;;;;;;5073593;28;20478;-77
2022/08/15 09:26:21;;;;;;;5.27;3.13;;;26.10;64.60;;;;;;5071506;28;20460;-77
2022/08/15 09:29:03;;;;;;;11.50;3.83;;;26.10;64.60;;;;;;5072700;28;20470;-78
2022/08/15 09:31:58;;;;;;;6.83;4.10;;;26.10;64.50;;;;;;5072422;28;20521;-78
2022/08/15 09:34:47;;;;;;;7.50;3.43;;;26.20;64.50;;;;;;5075960;28;20856;-78
2022/08/15 09:37:51;;;;;;;5.90;3.23;;;26.20;64.40;;;;;;5079339;28;20494;-77
2022/08/15 09:40:35;;;;;;;7.77;3.60;;;26.30;64.30;;;;;;5075786;28;20465;-76
2022/08/15 09:43:39;;;;;;;9.93;3.60;;;26.30;64.10;;;;;;5081996;28;20505;-77
2022/08/15 09:46:35;;;;;;;6.83;3.70;;;26.30;63.90;;;;;;5079887;28;20513;-78
2022/08/15 09:49:27;;;;;;;6.80;3.60;;;26.30;63.80;;;;;;5046500;28;20479;-77
2022/08/15 09:52:14;;;;;;;7.17;3.63;;;26.30;63.60;;;;;;5091565;28;20730;-76
2022/08/15 09:55:15;;;;;;;6.70;3.30;;;26.30;63.60;;;;;;5076638;28;20535;-76
2022/08/15 09:57:51;;;;;;;5.87;3.10;;;26.40;63.40;;;;;;5075729;28;20464;-77
2022/08/15 10:00:39;;;;;;;5.77;3.50;;;26.40;63.30;;;;;;5076647;28;20460;-77
2022/08/15 10:03:20;;;;;;;6.63;3.80;;;26.40;63.10;;;;;;5077559;28;20505;-78
2022/08/15 10:06:02;;;;;;;6.83;3.50;;;26.50;63.00;;;;;;5078504;28;20463;-77
2022/08/15 10:09:29;;;;;;;7.83;3.30;;;26.50;62.90;;;;;;5075372;28;20520;-77
2022/08/15 10:12:22;;;;;;;9.93;3.80;;;26.50;62.80;;;;;;5076948;28;20472;-78
2022/08/15 10:15:02;;;;;;;5.53;3.30;;;26.50;62.80;;;;;;5073459;28;20493;-77
2022/08/15 10:17:41;;;;;;;7.43;3.57;;;26.60;62.60;;;;;;5075826;28;20459;-76
2022/08/15 10:20:53;;;;;;;6.80;3.30;;;26.60;62.60;;;;;;5070762;28;20623;-75
2022/08/15 10:23:31;;;;;;;10.67;3.40;;;26.80;62.60;;;;;;5074935;28;20559;-76
2022/08/15 10:26:15;;;;;;;7.00;3.30;;;26.90;62.40;;;;;;5072479;28;20516;-74
2022/08/15 10:29:11;;;;;;;6.00;3.30;;;27.00;62.10;;;;;;5056438;28;20454;-76
2022/08/15 10:31:52;;;;;;;6.50;3.30;;;27.10;61.80;;;;;;5074296;28;20483;-77
2022/08/15 10:34:37;;;;;;;6.50;2.63;;;27.20;61.60;;;;;;5089758;28;20467;-78
2022/08/15 10:37:22;;;;;;;5.70;2.97;;;27.30;61.20;;;;;;5076414;28;20471;-77
2022/08/15 10:40:23;;;;;;;5.27;2.73;;;27.30;60.80;;;;;;5070811;28;20498;-76
2022/08/15 10:43:17;;;;;;;7.87;2.77;;;27.40;60.60;;;;;;5073490;28;20496;-76
2022/08/15 10:45:48;;;;;;;5.20;2.70;;;27.40;60.40;;;;;;5073915;28;20484;-77
2022/08/15 10:48:39;;;;;;;5.93;2.80;;;27.40;60.00;;;;;;5070724;28;20854;-76
2022/08/15 10:51:25;;;;;;;5.73;2.87;;;27.50;60.00;;;;;;5073065;28;21304;-76
2022/08/15 10:54:10;;;;;;;6.70;3.17;;;27.50;59.80;;;;;;5074289;28;20487;-76
2022/08/15 10:56:45;;;;;;;6.00;3.20;;;27.50;59.60;;;;;;5071937;28;20460;-75
2022/08/15 10:59:36;;;;;;;6.23;2.67;;;27.60;59.50;;;;;;5072292;28;20452;-77
2022/08/15 11:02:16;;;;;;;5.57;2.40;;;27.60;59.50;;;;;;5071942;28;20478;-77
2022/08/15 11:05:09;;;;;;;5.57;2.73;;;27.70;59.40;;;;;;5074708;28;20507;-76
2022/08/15 11:07:40;;;;;;;4.83;2.53;;;27.70;59.20;;;;;;5075460;28;20548;-75
2022/08/15 11:10:12;;;;;;;6.77;3.60;;;27.80;59.00;;;;;;5075288;28;21211;-75
2022/08/15 11:12:52;;;;;;;8.27;3.10;;;27.80;58.90;;;;;;5058429;28;20472;-75
2022/08/15 11:15:26;;;;;;;6.17;2.60;;;27.90;58.70;;;;;;5074114;28;21353;-76
2022/08/15 11:18:04;;;;;;;9.00;2.93;;;27.90;58.50;;;;;;5080362;28;20466;-76
2022/08/15 11:20:55;;;;;;;6.00;3.43;;;27.80;58.40;;;;;;5080440;28;20550;-77
2022/08/15 11:23:33;;;;;;;5.53;3.00;;;27.80;58.30;;;;;;5072815;28;20481;-77
2022/08/15 11:26:01;;;;;;;5.60;2.90;;;27.80;58.20;;;;;;5077299;28;21126;-77
2022/08/15 11:28:30;;;;;;;5.87;2.60;;;27.80;58.20;;;;;;5075954;28;20452;-78
2022/08/15 11:31:20;;;;;;;8.80;2.47;;;27.80;58.20;;;;;;5075648;28;20485;-78
2022/08/15 11:33:50;;;;;;;5.47;2.57;;;27.90;58.00;;;;;;5078096;28;21252;-78
2022/08/15 11:36:23;;;;;;;5.20;2.40;;;27.90;57.70;;;;;;5079057;28;20449;-78
2022/08/15 11:39:01;;;;;;;4.87;2.13;;;27.90;57.50;;;;;;5059925;28;20862;-78
2022/08/15 11:41:48;;;;;;;5.40;2.00;;;27.90;57.50;;;;;;5074056;28;20471;-78
2022/08/15 11:44:24;;;;;;;5.37;2.30;;;27.80;57.30;;;;;;5081034;28;20467;-78
2022/08/15 11:46:52;;;;;;;5.40;2.43;;;27.80;57.10;;;;;;5077565;28;20474;-78
2022/08/15 11:49:33;;;;;;;4.90;2.27;;;27.70;57.10;;;;;;5077348;28;20465;-78
2022/08/15 11:52:07;;;;;;;4.53;2.20;;;27.70;57.10;;;;;;5080171;28;20588;-78
2022/08/15 11:55:18;;;;;;;5.50;2.53;;;27.70;57.10;;;;;;5078721;28;20499;-78
2022/08/15 11:57:57;;;;;;;6.17;2.23;;;27.70;57.00;;;;;;5077030;28;20464;-78
2022/08/15 12:00:28;;;;;;;5.73;2.60;;;27.70;57.00;;;;;;5080183;28;20489;-78
2022/08/15 12:02:57;;;;;;;6.37;2.50;;;27.70;57.00;;;;;;5060466;28;20669;-78
2022/08/15 12:05:45;;;;;;;5.77;2.77;;;27.70;57.00;;;;;;5077111;28;20458;-78
2022/08/15 12:08:34;;;;;;;5.43;2.57;;;27.60;57.10;;;;;;5074752;28;20545;-78
2022/08/15 12:11:06;;;;;;;4.30;2.37;;;27.70;57.10;;;;;;5076372;28;20565;-77
2022/08/15 12:13:55;;;;;;;5.80;2.33;;;27.70;56.90;;;;;;5077938;28;20488;-77
2022/08/15 12:16:28;;;;;;;5.07;2.20;;;27.70;56.60;;;;;;5075212;28;20473;-78
2022/08/15 12:18:58;;;;;;;5.93;2.53;;;27.70;56.60;;;;;;5074877;28;20457;-78
2022/08/15 12:21:33;;;;;;;5.47;1.83;;;27.70;56.60;;;;;;5078175;28;21002;-78
2022/08/15 12:24:08;;;;;;;4.30;2.37;;;27.70;56.40;;;;;;5075698;28;20491;-78
2022/08/15 12:26:36;;;;;;;4.73;2.33;;;27.70;56.40;;;;;;5077973;28;20463;-78
2022/08/15 12:29:16;;;;;;;4.40;2.40;;;27.80;56.40;;;;;;5076776;28;20760;-78
2022/08/15 12:31:47;;;;;;;4.97;2.50;;;27.80;56.40;;;;;;5066743;28;20495;-77
2022/08/15 12:34:17;;;;;;;5.53;2.20;;;27.80;56.40;;;;;;5076743;28;20526;-78
2022/08/15 12:37:00;;;;;;;4.50;2.27;;;27.80;56.40;;;;;;5077394;28;20456;-78
2022/08/15 12:39:41;;;;;;;5.40;2.70;;;27.80;56.40;;;;;;5077741;28;20463;-78
2022/08/15 12:42:14;;;;;;;5.03;2.07;;;27.80;56.60;;;;;;5071886;28;21198;-78
2022/08/15 12:45:07;;;;;;;4.77;1.93;;;27.80;56.60;;;;;;5082725;28;20480;-77
2022/08/15 12:47:42;;;;;;;4.33;1.93;;;27.90;56.60;;;;;;5080755;28;20506;-77
2022/08/15 12:50:30;;;;;;;5.10;2.03;;;27.90;56.50;;;;;;5075390;28;20459;-75
2022/08/15 12:53:00;;;;;;;4.60;2.37;;;27.90;56.40;;;;;;5075542;28;21333;-77
2022/08/15 12:55:37;;;;;;;8.30;2.27;;;27.90;56.30;;;;;;5074003;28;20557;-77
2022/08/15 12:58:05;;;;;;;6.40;2.10;;;27.90;56.30;;;;;;5076128;28;21133;-78
2022/08/15 13:00:39;;;;;;;7.80;2.63;;;27.90;56.20;;;;;;5075228;28;20562;-77
2022/08/15 13:03:29;;;;;;;5.40;2.50;;;27.90;56.20;;;;;;5075375;28;20481;-76
2022/08/15 13:06:23;;;;;;;5.37;2.73;;;27.90;56.20;;;;;;5077807;28;21031;-76
2022/08/15 13:09:03;;;;;;;4.60;2.30;;;27.90;56.20;;;;;;5071297;28;20469;-77
2022/08/15 13:11:33;;;;;;;5.20;2.60;;;27.90;56.20;;;;;;5071117;28;21009;-75
2022/08/15 13:14:01;;;;;;;7.30;3.03;;;27.90;56.20;;;;;;5074590;28;20478;-76
2022/08/15 13:16:31;;;;;;;7.00;2.90;;;27.90;56.40;;;;;;5072110;28;20481;-76
2022/08/15 13:19:22;;;;;;;6.23;3.17;;;27.90;56.50;;;;;;5076862;28;20906;-76
2022/08/15 13:24:57;;;;;;;6.80;3.13;;;28.00;56.40;;;;;;5056153;28;20489;-74
2022/08/15 13:27:30;;;;;;;4.80;2.70;;;28.10;56.40;;;;;;5076131;28;20463;-76
2022/08/15 13:30:01;;;;;;;12.60;2.93;;;28.10;56.40;;;;;;5076568;28;20471;-76
2022/08/15 13:32:35;;;;;;;5.13;3.03;;;28.20;56.50;;;;;;5076101;28;20494;-76
2022/08/15 13:35:08;;;;;;;6.30;2.93;;;28.20;56.70;;;;;;5074579;28;20513;-74
2022/08/15 13:37:39;;;;;;;5.57;3.00;;;28.30;56.70;;;;;;5080885;28;21017;-75
2022/08/15 13:40:27;;;;;;;6.27;3.50;;;28.30;56.80;;;;;;5074994;28;20490;-76
2022/08/15 13:42:59;;;;;;;11.83;3.60;;;28.40;56.80;;;;;;5069351;28;20450;-77
2022/08/15 13:45:39;;;;;;;4.70;2.77;;;28.40;56.70;;;;;;5061894;28;20474;-75
2022/08/15 13:48:32;;;;;;;5.43;2.90;;;28.40;56.70;;;;;;5070002;28;20469;-77
2022/08/15 13:51:09;;;;;;;5.03;2.73;;;28.40;56.50;;;;;;5072586;28;20442;-76
2022/08/15 13:53:40;;;;;;;5.60;3.17;;;28.40;56.60;;;;;;5070075;28;20493;-76
2022/08/15 13:56:29;;;;;;;5.20;2.77;;;28.40;56.50;;;;;;5070591;28;20468;-75
2022/08/15 13:59:02;;;;;;;4.60;2.60;;;28.40;56.40;;;;;;5070811;28;20510;-75
2022/08/15 14:01:32;;;;;;;4.80;2.47;;;28.40;56.30;;;;;;5069705;28;20491;-75